Terminal Aerodrome Forecast
Issued by NWS

Home | Current Version | Previous Version | Text Only | Print | Product List | Glossary On
Versions: 1 2 3 4 5 6 7 8 9 10 11 12 13 14 15 16 17
000
FTUS41 KPHI 221741
TAFMIV
TAF
KMIV 221741Z 2218/2318 VRB03KT P6SM SCT040
     FM222100 19006KT P6SM VCTS BKN050CB
      TEMPO 2223/2303 4SM TSRA OVC025CB
     FM230300 VRB04KT P6SM BKN070 PROB30 2303/2309 4SM TSRA OVC015CB
     FM230900 VRB04KT 5SM BR BKN040
     FM231300 28005KT P6SM BKN100=

USA.gov is the U.S. government's official web portal to all federal, state and local government web resources and services.